Time;durP1;ratioP1;P1;durP2;ratioP2;P2;SDS_P1;SDS_P2;PMS_P1;PMS_P2;Temp;Humidity;BMP_temperature;BMP_pressure;BME280_temperature;BME280_humidity;BME280_pressure;Samples;Min_cycle;Max_cycle;Signal;HPM_P1;HPM_P2
2023/06/30 00:00:29;;;;;;;3.65;2.30;;;;;;;-145.68;60.75;72730.34;10580244;28;20251;-72
2023/06/30 00:05:29;;;;;;;6.32;2.35;;;;;;;-145.68;60.17;72722.34;10580134;28;20190;-72
2023/06/30 00:10:30;;;;;;;7.30;2.30;;;;;;;-145.68;58.92;72708.34;10579749;28;20178;-72
2023/06/30 00:15:30;;;;;;;3.72;2.05;;;;;;;-145.68;59.27;72718.34;10580247;28;20196;-72
2023/06/30 00:20:32;;;;;;;4.53;2.28;;;;;;;-145.68;58.69;72692.38;10577959;28;20221;-72
2023/06/30 00:25:32;;;;;;;3.13;2.13;;;;;;;-145.68;57.70;72686.38;10579862;28;20222;-72
2023/06/30 00:30:32;;;;;;;4.30;2.10;;;;;;;-145.68;58.07;72696.34;10578879;28;20280;-73
2023/06/30 00:35:33;;;;;;;3.05;1.90;;;;;;;-145.68;57.99;72686.38;10519814;28;20237;-72
2023/06/30 00:40:34;;;;;;;3.30;2.22;;;;;;;-145.68;57.89;72692.38;10536398;28;20242;-72
2023/06/30 00:45:34;;;;;;;4.22;2.20;;;;;;;-145.68;58.25;72684.38;10536332;28;20189;-72
2023/06/30 00:50:35;;;;;;;3.08;2.08;;;;;;;-145.68;57.30;72680.38;10536348;28;20186;-73
2023/06/30 00:55:35;;;;;;;7.32;2.45;;;;;;;-145.68;55.80;72656.41;10535846;28;20299;-72
2023/06/30 01:00:36;;;;;;;5.32;2.47;;;;;;;-145.68;55.07;72630.41;10535208;28;20678;-73
2023/06/30 01:05:47;;;;;;;5.30;2.83;;;;;;;-145.68;55.41;72646.41;10516751;28;20240;-72
2023/06/30 01:10:48;;;;;;;4.38;2.70;;;;;;;-145.68;55.56;72632.41;10500619;28;20187;-73
2023/06/30 01:15:49;;;;;;;9.65;2.30;;;;;;;-145.68;55.29;72628.41;10535276;28;20190;-72
2023/06/30 01:20:51;;;;;;;7.18;2.40;;;;;;;-145.68;54.61;72610.44;10516752;28;20240;-73
2023/06/30 01:25:51;;;;;;;3.50;2.35;;;;;;;-145.68;55.21;72628.41;10535388;28;20179;-72
2023/06/30 01:30:52;;;;;;;3.78;2.60;;;;;;;-145.68;54.90;72618.44;10535689;28;20194;-73
2023/06/30 01:35:53;;;;;;;4.10;2.70;;;;;;;-145.68;54.37;72616.44;10558789;28;20189;-72
2023/06/30 01:40:55;;;;;;;7.88;2.60;;;;;;;-145.68;54.19;72608.44;10576347;28;20218;-72
2023/06/30 01:45:55;;;;;;;4.68;2.30;;;;;;;-145.68;53.89;72604.44;10576304;28;20190;-72
2023/06/30 01:50:57;;;;;;;5.82;2.20;;;;;;;-145.68;53.70;72602.44;10541325;28;20190;-73
2023/06/30 01:55:58;;;;;;;4.55;2.58;;;;;;;-145.68;53.50;72602.44;10576205;28;20192;-72
2023/06/30 02:00:59;;;;;;;8.13;2.42;;;;;;;-145.68;53.72;72606.44;10557619;28;20210;-72
2023/06/30 02:05:59;;;;;;;4.03;2.30;;;;;;;-145.68;53.01;72594.44;10557799;28;20200;-72
2023/06/30 02:10:59;;;;;;;3.78;2.30;;;;;;;-145.68;53.61;72612.44;10557353;28;20277;-73
2023/06/30 02:16:00;;;;;;;3.75;2.28;;;;;;;-145.68;54.77;72612.44;10558443;28;20206;-73
2023/06/30 02:21:00;;;;;;;15.77;3.30;;;;;;;-145.68;57.45;72656.41;10575790;28;20213;-73
2023/06/30 02:26:01;;;;;;;4.60;2.70;;;;;;;-145.68;58.81;72680.38;10575653;28;20246;-73
2023/06/30 02:31:01;;;;;;;5.05;2.90;;;;;;;-145.68;58.09;72662.38;10575270;28;20225;-73
2023/06/30 02:36:05;;;;;;;4.68;3.05;;;;;;;-145.68;58.92;72694.38;10557454;28;20285;-73
2023/06/30 02:41:05;;;;;;;5.82;3.13;;;;;;;-145.68;61.68;72736.31;10575250;28;20279;-73
2023/06/30 02:46:06;;;;;;;9.63;3.85;;;;;;;-145.68;63.88;72752.31;10564080;28;20236;-73
2023/06/30 02:51:06;;;;;;;4.90;3.10;;;;;;;-145.68;64.61;72768.31;10565197;28;20610;-73
2023/06/30 02:56:06;;;;;;;6.03;2.67;;;;;;;-145.68;66.10;72776.28;10583228;28;20269;-73
2023/06/30 03:01:11;;;;;;;4.72;2.97;;;;;;;-145.68;67.04;72786.28;10564068;28;20681;-73
2023/06/30 03:06:14;;;;;;;4.55;3.35;;;;;;;-145.68;67.75;72798.28;10487626;28;20222;-73
2023/06/30 03:11:14;;;;;;;6.53;3.35;;;;;;;-145.68;72.64;72824.25;10475769;28;20282;-73
2023/06/30 03:16:15;;;;;;;8.05;3.65;;;;;;;-145.68;82.76;72844.25;10476318;28;20238;-74
2023/06/30 03:21:16;;;;;;;9.52;4.07;;;;;;;-145.68;91.59;72892.22;10476194;28;20223;-74
2023/06/30 03:26:16;;;;;;;8.70;3.88;;;;;;;-145.68;96.62;72884.22;10475725;28;20187;-74
2023/06/30 03:31:18;;;;;;;5.90;3.92;;;;;;;-145.68;97.28;72890.22;10480939;28;20233;-74
2023/06/30 03:36:20;;;;;;;10.50;4.82;;;;;;;-145.68;100.00;72882.22;10517143;28;20186;-74
2023/06/30 03:41:21;;;;;;;9.82;3.63;;;;;;;-145.68;100.00;72880.22;10517043;28;20229;-74
2023/06/30 03:46:22;;;;;;;8.57;3.85;;;;;;;-145.68;100.00;72908.19;10546814;28;20210;-74
2023/06/30 03:51:23;;;;;;;8.25;3.22;;;;;;;-145.68;100.00;72882.22;10542275;28;20641;-74
2023/06/30 03:56:25;;;;;;;6.40;3.40;;;;;;;-145.68;100.00;72878.22;10558467;28;20680;-74
2023/06/30 04:01:26;;;;;;;5.13;3.55;;;;;;;-145.68;100.00;72880.22;10558916;28;20304;-74
2023/06/30 04:06:26;;;;;;;10.73;3.85;;;;;;;-145.68;99.91;72874.22;10580129;28;20194;-74
2023/06/30 04:11:26;;;;;;;3.78;3.05;;;;;;;-145.68;93.34;72860.22;10580152;28;20201;-73
2023/06/30 04:16:27;;;;;;;5.28;3.55;;;;;;;-145.68;94.73;72862.22;10578823;27;20182;-73
2023/06/30 04:21:27;;;;;;;6.60;3.72;;;;;;;-145.68;96.52;72870.22;10578575;28;20221;-74
2023/06/30 04:26:28;;;;;;;5.35;3.20;;;;;;;-145.68;96.44;72852.25;10578765;28;20335;-74
2023/06/30 04:31:28;;;;;;;4.72;3.28;;;;;;;-145.68;87.63;72838.25;10578385;28;20226;-73
2023/06/30 04:36:28;;;;;;;5.75;3.75;;;;;;;-145.68;86.15;72830.25;10579140;28;20335;-73
2023/06/30 04:41:29;;;;;;;6.20;3.45;;;;;;;-145.68;87.16;72812.28;10578776;28;20225;-73
2023/06/30 04:46:30;;;;;;;6.07;3.15;;;;;;;-145.68;90.43;72832.25;10578879;28;20200;-73
2023/06/30 04:51:30;;;;;;;6.22;3.50;;;;;;;-145.68;86.89;72794.28;10578005;28;20190;-72
2023/06/30 04:56:30;;;;;;;6.30;3.58;;;;;;;-145.68;84.39;72788.28;10578312;28;20198;-73
2023/06/30 05:01:32;;;;;;;4.70;3.40;;;;;;;-145.68;83.84;72758.31;10577997;28;20306;-72
2023/06/30 05:06:33;;;;;;;5.03;3.75;;;;;;;-145.68;82.26;72760.31;10576638;28;20549;-73
2023/06/30 05:11:33;;;;;;;6.43;3.65;;;;;;;-145.68;82.68;72762.31;10577443;28;20182;-73
2023/06/30 05:16:33;;;;;;;4.03;3.10;;;;;;;-145.68;82.08;72748.31;10577516;28;20234;-72
2023/06/30 05:21:34;;;;;;;6.35;3.63;;;;;;;-145.68;86.11;72750.31;10577025;28;20217;-73
2023/06/30 05:26:34;;;;;;;8.73;3.65;;;;;;;-145.68;86.98;72736.31;10577204;28;20322;-72
2023/06/30 05:31:35;;;;;;;6.05;3.60;;;;;;;-145.68;85.98;72746.31;10576824;28;20218;-72
2023/06/30 05:36:35;;;;;;;7.88;3.55;;;;;;;-145.68;87.86;72720.34;10576826;28;20190;-72
2023/06/30 05:41:35;;;;;;;9.98;3.63;;;;;;;-145.68;87.67;72730.34;10576163;28;20229;-72
2023/06/30 05:46:39;;;;;;;7.70;3.60;;;;;;;-145.68;90.11;72722.34;10576882;28;20197;-72
2023/06/30 05:51:39;;;;;;;5.35;3.38;;;;;;;-145.68;89.18;72704.34;10576171;28;20666;-72
2023/06/30 05:57:36;;;;;;;4.25;3.53;;;;;;;-145.68;89.55;72696.34;10575216;27;20276;-73
2023/06/30 06:02:36;;;;;;;9.85;3.80;;;;;;;-145.68;84.53;72684.38;10576470;28;20619;-72
2023/06/30 06:07:37;;;;;;;6.05;3.00;;;;;;;-145.68;81.77;72646.41;10554953;28;20216;-72
2023/06/30 06:12:39;;;;;;;10.55;3.88;;;;;;;-145.68;80.29;72600.44;10536707;28;20190;-72
2023/06/30 06:17:39;;;;;;;8.38;4.20;;;;;;;-145.68;78.08;72574.47;10578541;28;20233;-73
2023/06/30 06:22:39;;;;;;;10.60;5.03;;;;;;;-145.68;75.61;72576.47;10584281;28;20193;-72
2023/06/30 06:27:40;;;;;;;8.95;4.30;;;;;;;-145.68;73.92;72560.47;10583716;28;20673;-72
2023/06/30 06:32:40;;;;;;;10.95;4.80;;;;;;;-145.68;71.87;72508.50;10566661;28;20317;-72
2023/06/30 06:37:40;;;;;;;11.60;4.50;;;;;;;-145.68;71.49;72510.50;10540726;28;20214;-73
2023/06/30 06:42:41;;;;;;;7.68;4.30;;;;;;;-145.68;71.59;72534.50;10539630;28;20197;-73
2023/06/30 06:48:16;;;;;;;8.15;4.45;;;;;;;-145.68;71.58;72532.50;10538970;28;20220;-72
2023/06/30 06:53:21;;;;;;;7.03;4.28;;;;;;;-145.68;70.96;72486.53;10533876;28;20198;-72
2023/06/30 06:58:24;;;;;;;6.43;3.85;;;;;;;-145.68;68.05;72446.56;10521731;28;20218;-72
2023/06/30 07:03:24;;;;;;;6.35;3.55;;;;;;;-145.68;68.72;72450.56;10538679;28;20547;-72
2023/06/30 07:08:25;;;;;;;4.18;3.15;;;;;;;-145.68;66.32;72430.59;10520975;28;20186;-72
2023/06/30 07:13:25;;;;;;;7.03;3.70;;;;;;;-145.68;64.94;72408.59;10538472;28;20190;-73
2023/06/30 07:18:26;;;;;;;5.97;3.17;;;;;;;-145.68;64.92;72398.63;10538777;28;20218;-73
2023/06/30 07:23:26;;;;;;;4.15;3.25;;;;;;;-145.68;61.90;72358.66;10538125;28;20333;-73
2023/06/30 07:28:26;;;;;;;6.32;3.05;;;;;;;-145.68;61.72;72346.66;10536964;28;20183;-73
2023/06/30 07:33:27;;;;;;;4.68;3.20;;;;;;;-145.68;61.85;72276.72;10568222;27;20270;-73
2023/06/30 07:38:27;;;;;;;5.40;3.35;;;;;;;-145.68;60.91;72220.78;10579580;28;20225;-73
2023/06/30 07:43:27;;;;;;;5.35;4.22;;;;;;;-145.68;63.58;72236.75;10575846;28;20194;-72
2023/06/30 07:48:28;;;;;;;7.75;3.22;;;;;;;-145.68;62.60;72184.81;10577997;28;20190;-73
2023/06/30 07:53:28;;;;;;;5.97;3.85;;;;;;;-145.68;60.83;72152.84;10578095;28;20186;-73
2023/06/30 07:58:29;;;;;;;5.53;3.90;;;;;;;-145.68;59.52;72148.84;10578024;28;20220;-73
2023/06/30 08:03:29;;;;;;;5.43;4.03;;;;;;;-145.68;56.69;72092.91;10578103;28;20276;-73
2023/06/30 08:08:31;;;;;;;3.85;3.35;;;;;;;-145.68;56.29;72102.88;10578097;28;20181;-73
2023/06/30 08:13:31;;;;;;;6.88;3.28;;;;;;;-145.68;58.63;72182.81;10559019;28;20201;-72
2023/06/30 08:18:31;;;;;;;7.50;3.85;;;;;;;-145.68;57.95;72158.84;10576952;28;20214;-73
2023/06/30 08:23:32;;;;;;;8.38;4.40;;;;;;;-145.68;57.00;72156.84;10575751;28;20750;-73
2023/06/30 08:28:32;;;;;;;5.40;3.83;;;;;;;-145.68;58.29;72158.84;10577107;28;20729;-73
2023/06/30 08:33:33;;;;;;;7.50;4.35;;;;;;;-145.68;58.75;72176.81;10557896;28;20724;-73
2023/06/30 08:38:33;;;;;;;7.53;4.75;;;;;;;-145.68;58.56;72144.84;10576319;28;20970;-73
2023/06/30 08:43:34;;;;;;;6.13;4.53;;;;;;;-145.68;61.70;72222.78;10575104;28;20633;-72
2023/06/30 08:48:35;;;;;;;10.43;4.72;;;;;;;-145.68;58.18;72116.88;10555996;28;20193;-73
2023/06/30 08:53:36;;;;;;;6.20;4.45;;;;;;;-145.68;57.38;72092.91;10575740;28;20648;-73
2023/06/30 08:58:37;;;;;;;6.20;4.38;;;;;;;-145.68;56.33;72096.88;10575145;28;20766;-73
2023/06/30 09:03:37;;;;;;;6.55;4.13;;;;;;;-145.68;55.56;72088.91;10574956;28;20226;-73
2023/06/30 09:08:47;;;;;;;7.68;4.82;;;;;;;-145.68;56.85;72144.84;10575543;28;20193;-73
2023/06/30 09:13:48;;;;;;;9.10;5.15;;;;;;;-145.68;59.77;72212.78;10540111;28;20209;-73
2023/06/30 09:18:49;;;;;;;12.65;5.57;;;;;;;-145.68;60.28;72198.78;10574767;28;20703;-73
2023/06/30 09:23:50;;;;;;;5.50;4.97;;;;;;;-145.68;60.11;72160.81;10574888;28;20198;-73
2023/06/30 09:28:54;;;;;;;6.25;4.75;;;;;;;-145.68;56.54;72060.94;10574119;28;20189;-73
2023/06/30 09:34:09;;;;;;;7.53;4.90;;;;;;;-145.68;55.85;72022.97;10574819;28;20240;-73
2023/06/30 09:39:10;;;;;;;11.23;4.97;;;;;;;-145.68;53.94;71961.03;10574137;28;20242;-72
2023/06/30 09:44:11;;;;;;;8.27;5.03;;;;;;;-145.68;53.03;71913.06;10573447;28;20803;-73
2023/06/30 09:49:25;;;;;;;8.38;4.80;;;;;;;-145.68;53.05;71933.03;10573650;28;20198;-73
2023/06/30 09:54:26;;;;;;;7.80;4.85;;;;;;;-145.68;55.44;72020.97;10573065;28;20243;-73
2023/06/30 09:59:27;;;;;;;6.32;5.35;;;;;;;-145.68;56.41;72056.94;10573273;28;20647;-74
2023/06/30 10:04:30;;;;;;;6.13;4.63;;;;;;;-145.68;55.86;72008.97;10573018;28;20193;-73
2023/06/30 10:09:31;;;;;;;9.52;5.30;;;;;;;-145.68;54.58;72008.97;10561896;28;20197;-73
2023/06/30 10:14:32;;;;;;;6.45;4.72;;;;;;;-145.68;52.29;71903.06;10566654;28;20189;-73
2023/06/30 10:19:32;;;;;;;5.82;4.80;;;;;;;-145.68;52.47;71877.09;10571826;28;20218;-73
2023/06/30 10:24:41;;;;;;;7.18;4.97;;;;;;;-145.68;50.95;71885.09;10572635;28;20198;-73
2023/06/30 10:29:42;;;;;;;6.88;4.78;;;;;;;-145.68;52.50;71837.16;10555968;28;20178;-73
2023/06/30 10:34:42;;;;;;;10.93;5.35;;;;;;;-145.68;49.87;71761.22;10555364;28;20724;-73
2023/06/30 10:39:43;;;;;;;8.05;4.43;;;;;;;-145.68;46.59;71561.44;10572241;28;20227;-73
2023/06/30 10:44:44;;;;;;;4.68;4.15;;;;;;;-145.68;47.27;71629.38;10572818;28;20186;-73
2023/06/30 10:49:45;;;;;;;7.25;4.45;;;;;;;-145.68;46.04;71641.34;10572841;28;20220;-73
2023/06/30 10:54:49;;;;;;;7.73;4.03;;;;;;;-145.68;43.15;71431.56;10572202;28;20196;-73
2023/06/30 11:00:10;;;;;;;6.35;4.00;;;;;;;-145.68;44.39;71469.53;10572653;28;20562;-73
2023/06/30 11:05:27;;;;;;;6.60;3.95;;;;;;;-145.68;42.36;71335.69;10576396;28;20246;-73
2023/06/30 11:10:46;;;;;;;6.57;3.40;;;;;;;-145.68;39.62;71261.78;10580075;28;20274;-73
2023/06/30 11:15:47;;;;;;;4.68;3.63;;;;;;;-145.68;39.51;71239.81;10580218;28;20182;-73
2023/06/30 11:21:01;;;;;;;5.07;3.42;;;;;;;-145.68;41.64;71291.75;10579789;28;20214;-73
2023/06/30 11:26:16;;;;;;;5.85;3.70;;;;;;;-145.68;39.89;71169.88;10579627;28;20186;-73
2023/06/30 11:31:31;;;;;;;5.28;3.13;;;;;;;-145.68;39.65;71097.97;10561272;28;20231;-74
2023/06/30 11:36:47;;;;;;;5.30;3.20;;;;;;;-145.68;38.22;71117.94;10565118;27;20197;-74
2023/06/30 11:41:47;;;;;;;5.35;3.00;;;;;;;-145.68;38.70;71137.91;10578434;28;20214;-74
2023/06/30 11:46:48;;;;;;;5.33;2.73;;;;;;;-145.68;35.67;70940.16;10578878;28;20196;-73
2023/06/30 11:51:48;;;;;;;4.93;3.40;;;;;;;-145.68;35.02;70916.19;10578303;28;20439;-73
2023/06/30 11:56:48;;;;;;;5.90;3.30;;;;;;;-145.68;37.12;70918.19;10578122;28;20186;-74
2023/06/30 12:01:49;;;;;;;3.87;2.63;;;;;;;-145.68;35.34;70892.22;10559989;28;20547;-74
2023/06/30 12:06:49;;;;;;;10.43;3.80;;;;;;;-145.68;35.93;70942.16;10577139;28;20431;-74
2023/06/30 12:11:49;;;;;;;5.20;3.10;;;;;;;-145.68;36.57;70966.13;10577598;28;20854;-74
2023/06/30 12:16:53;;;;;;;6.15;2.90;;;;;;;-145.68;35.63;70808.31;10559634;28;20451;-74
2023/06/30 12:21:55;;;;;;;4.30;2.90;;;;;;;-145.68;35.86;70790.34;10576294;28;20217;-74
2023/06/30 12:26:56;;;;;;;7.43;3.33;;;;;;;-145.68;35.32;70950.16;10576803;28;20182;-73
2023/06/30 12:31:56;;;;;;;3.85;3.10;;;;;;;-145.68;35.01;70888.22;10576151;28;20221;-74
2023/06/30 12:36:56;;;;;;;5.50;3.42;;;;;;;-145.68;36.04;70758.38;10576235;28;20185;-74
2023/06/30 12:41:57;;;;;;;5.43;3.90;;;;;;;-145.68;33.92;70792.34;10575922;28;20218;-74
2023/06/30 12:47:01;;;;;;;3.70;2.90;;;;;;;-145.68;36.29;70880.22;10576206;28;20435;-74
2023/06/30 12:52:02;;;;;;;6.72;3.42;;;;;;;-145.68;36.25;70934.16;10575697;28;20182;-74
2023/06/30 12:57:03;;;;;;;7.20;3.97;;;;;;;-145.68;36.92;71040.03;10575582;28;20715;-73
2023/06/30 13:02:04;;;;;;;6.55;3.03;;;;;;;-145.68;37.30;71030.06;10575896;28;20663;-73
2023/06/30 13:07:05;;;;;;;3.83;3.38;;;;;;;-145.68;39.21;71219.81;10574360;28;20194;-73
2023/06/30 13:12:09;;;;;;;4.93;3.45;;;;;;;-145.68;40.50;71197.84;10545669;28;20194;-73
2023/06/30 13:17:09;;;;;;;6.30;3.40;;;;;;;-145.68;40.12;71217.81;10551359;28;20205;-73
2023/06/30 13:22:11;;;;;;;8.43;4.20;;;;;;;-145.68;41.76;71435.56;10574333;28;20711;-73
2023/06/30 13:27:12;;;;;;;4.82;3.42;;;;;;;-145.68;40.73;71365.66;10574536;28;20276;-74
2023/06/30 13:32:12;;;;;;;4.73;3.60;;;;;;;-145.68;41.55;71329.69;10574438;28;20720;-74
2023/06/30 13:37:13;;;;;;;8.15;3.80;;;;;;;-145.68;42.23;71341.69;10555638;28;20861;-74
2023/06/30 13:42:13;;;;;;;4.82;3.58;;;;;;;-145.68;43.23;71471.53;10574243;28;20222;-73
2023/06/30 13:47:14;;;;;;;9.40;5.80;;;;;;;-145.68;47.67;71715.28;10574087;28;20190;-73
2023/06/30 13:52:14;;;;;;;9.75;4.97;;;;;;;-145.68;50.43;71917.06;10574005;28;20182;-73
2023/06/30 13:57:15;;;;;;;6.18;4.63;;;;;;;-145.68;50.53;71945.03;10572426;28;20281;-74
2023/06/30 14:02:16;;;;;;;7.28;4.13;;;;;;;-145.68;51.34;72004.97;10573762;28;20213;-73
2023/06/30 14:07:16;;;;;;;6.28;4.50;;;;;;;-145.68;52.16;72076.91;10573147;28;20197;-73
2023/06/30 14:12:16;;;;;;;7.38;4.85;;;;;;;-145.68;52.84;72176.81;10573066;28;20189;-73
2023/06/30 14:17:17;;;;;;;7.03;4.68;;;;;;;-145.68;53.84;72228.75;10571223;28;20246;-74
2023/06/30 14:22:18;;;;;;;8.63;5.60;;;;;;;-145.68;53.39;72218.78;10572193;28;20225;-74
2023/06/30 14:27:18;;;;;;;8.25;5.95;;;;;;;-145.68;55.24;72272.72;10556959;28;20676;-73
2023/06/30 14:32:20;;;;;;;7.55;5.75;;;;;;;-145.68;55.56;72266.72;10584232;27;20217;-74
2023/06/30 14:37:20;;;;;;;7.53;6.13;;;;;;;-145.68;55.41;72252.75;10571104;28;20250;-73
2023/06/30 14:42:21;;;;;;;7.35;5.22;;;;;;;-145.68;54.94;72238.75;10580469;28;20259;-75
2023/06/30 14:47:21;;;;;;;9.02;5.65;;;;;;;-145.68;58.09;72374.63;10580221;28;20182;-74
2023/06/30 14:52:22;;;;;;;10.57;6.78;;;;;;;-145.68;63.85;72478.53;10562507;28;20173;-75
2023/06/30 14:57:22;;;;;;;9.10;5.97;;;;;;;-145.68;65.76;72420.59;10560863;28;20272;-74
2023/06/30 15:02:22;;;;;;;10.73;6.35;;;;;;;-145.68;69.26;72426.59;10561026;28;20214;-74
2023/06/30 15:07:23;;;;;;;8.60;5.97;;;;;;;-145.68;69.28;72392.63;10578615;28;20200;-75
2023/06/30 15:12:23;;;;;;;12.13;7.85;;;;;;;-145.68;66.77;72348.66;10576849;28;20641;-74
2023/06/30 15:17:23;;;;;;;9.63;6.93;;;;;;;-145.68;66.92;72390.63;10578737;28;20178;-74
2023/06/30 15:22:26;;;;;;;10.85;8.35;;;;;;;-145.68;66.31;72300.69;10560464;28;20214;-74
2023/06/30 15:27:26;;;;;;;10.10;8.20;;;;;;;-145.68;67.93;72284.72;10578544;28;20190;-74
2023/06/30 15:32:26;;;;;;;10.68;8.32;;;;;;;-145.68;70.41;72300.69;10578783;28;20230;-74
2023/06/30 15:37:27;;;;;;;10.85;8.57;;;;;;;-145.68;70.39;72278.72;10561585;28;20309;-74
2023/06/30 15:42:27;;;;;;;14.35;10.77;;;;;;;-145.68;74.90;72364.63;10577293;28;20240;-73
2023/06/30 15:47:28;;;;;;;14.70;11.57;;;;;;;-145.68;79.34;72390.63;10577449;28;20551;-73
2023/06/30 15:52:28;;;;;;;15.05;11.82;;;;;;;-145.68;85.02;72420.59;10576625;28;20278;-73
2023/06/30 15:57:28;;;;;;;13.63;10.85;;;;;;;-145.68;88.87;72416.59;10589361;27;20270;-73
2023/06/30 16:02:29;;;;;;;14.05;10.48;;;;;;;-145.68;90.62;72434.59;10578422;28;20237;-73
2023/06/30 16:07:29;;;;;;;13.52;10.00;;;;;;;-145.68;90.74;72408.59;10578932;28;20185;-73
2023/06/30 16:12:29;;;;;;;13.57;10.15;;;;;;;-145.68;91.36;72412.59;10579625;28;20231;-73
2023/06/30 16:17:30;;;;;;;15.60;10.18;;;;;;;-145.68;91.50;72408.59;10579472;28;20280;-73
2023/06/30 16:22:31;;;;;;;13.82;10.55;;;;;;;-145.68;91.05;72402.59;10579122;28;20605;-73
2023/06/30 16:27:31;;;;;;;12.07;9.75;;;;;;;-145.68;90.76;72434.59;10579378;28;20186;-73
2023/06/30 16:32:32;;;;;;;15.23;11.02;;;;;;;-145.68;91.56;72456.56;10578504;28;20577;-74
2023/06/30 16:37:32;;;;;;;14.75;12.18;;;;;;;-145.68;91.66;72466.56;10575674;28;20201;-74
2023/06/30 16:42:32;;;;;;;15.48;11.80;;;;;;;-145.68;91.46;72442.56;10575194;28;20239;-74
2023/06/30 16:47:33;;;;;;;19.73;13.52;;;;;;;-145.68;92.58;72456.56;10576986;28;20186;-73
2023/06/30 16:52:36;;;;;;;16.23;13.18;;;;;;;-145.68;92.90;72452.56;10576551;28;20201;-74
2023/06/30 16:57:38;;;;;;;21.00;14.40;;;;;;;-145.68;92.72;72446.56;10557680;28;20554;-74
2023/06/30 17:02:38;;;;;;;22.65;16.10;;;;;;;-145.68;92.44;72450.56;10574878;28;20304;-74
2023/06/30 17:07:38;;;;;;;28.02;20.55;;;;;;;-145.68;94.73;72468.56;10576605;28;20212;-74
2023/06/30 17:12:39;;;;;;;30.85;22.73;;;;;;;-145.68;95.68;72468.56;10574622;28;20193;-74
2023/06/30 17:17:39;;;;;;;32.50;23.80;;;;;;;-145.68;93.46;72454.56;10575971;28;20281;-74
2023/06/30 17:22:40;;;;;;;33.53;23.83;;;;;;;-145.68;97.78;72494.53;10575453;28;20194;-75
2023/06/30 17:27:40;;;;;;;32.50;23.23;;;;;;;-145.68;97.33;72488.53;10575100;28;20768;-73
2023/06/30 17:32:41;;;;;;;36.40;24.65;;;;;;;-145.68;95.95;72490.53;10558067;28;20233;-73
2023/06/30 17:37:41;;;;;;;33.95;23.55;;;;;;;-145.68;94.83;72478.53;10532576;28;20214;-73
2023/06/30 17:42:41;;;;;;;32.40;23.65;;;;;;;-145.68;95.93;72492.53;10532511;28;20194;-73
2023/06/30 17:47:42;;;;;;;33.03;23.50;;;;;;;-145.68;95.94;72496.53;10531808;28;20285;-73
2023/06/30 17:52:42;;;;;;;35.78;22.48;;;;;;;-145.68;97.58;72496.53;10530597;28;20203;-73
2023/06/30 17:57:43;;;;;;;32.58;22.73;;;;;;;-145.68;96.65;72466.56;10531263;28;20207;-73
2023/06/30 18:02:43;;;;;;;31.15;22.80;;;;;;;-145.68;96.66;72468.56;10530083;28;20198;-73
2023/06/30 18:07:44;;;;;;;33.95;23.60;;;;;;;-145.68;94.53;72454.56;10530836;28;20193;-73
2023/06/30 18:12:44;;;;;;;38.67;26.15;;;;;;;-145.68;91.79;72432.59;10513997;28;20187;-73
2023/06/30 18:17:44;;;;;;;34.60;23.95;;;;;;;-145.68;96.85;72504.53;10539816;28;20205;-73
2023/06/30 18:22:45;;;;;;;33.40;23.27;;;;;;;-145.68;100.00;72510.50;10538299;28;20194;-73
2023/06/30 18:27:45;;;;;;;37.33;25.05;;;;;;;-145.68;100.00;72530.50;10539180;28;20396;-73
2023/06/30 18:32:45;;;;;;;31.38;22.92;;;;;;;-145.68;100.00;72560.47;10555970;28;20260;-73
2023/06/30 18:37:46;;;;;;;25.33;15.80;;;;;;;-145.68;100.00;72556.47;10580404;28;20300;-73
2023/06/30 18:42:47;;;;;;;25.70;16.27;;;;;;;-145.68;100.00;72592.44;10545622;28;20190;-73
2023/06/30 18:47:47;;;;;;;23.90;15.48;;;;;;;-145.68;100.00;72590.44;10580679;28;20197;-73
2023/06/30 18:52:48;;;;;;;26.00;17.35;;;;;;;-145.68;100.00;72620.41;10580236;28;20189;-73
2023/06/30 18:57:48;;;;;;;25.98;18.73;;;;;;;-145.68;100.00;72644.41;10580217;28;20182;-73
2023/06/30 19:02:48;;;;;;;32.92;21.30;;;;;;;-145.68;100.00;72684.38;10579698;28;20186;-74
2023/06/30 19:07:49;;;;;;;30.67;21.60;;;;;;;-145.68;100.00;72704.34;10579030;28;20658;-73
2023/06/30 19:12:49;;;;;;;34.28;20.35;;;;;;;-145.68;100.00;72704.34;10579341;28;20186;-73
2023/06/30 19:17:50;;;;;;;31.08;20.85;;;;;;;-145.68;100.00;72694.38;10572097;28;20338;-73
2023/06/30 19:22:50;;;;;;;32.45;19.67;;;;;;;-145.68;100.00;72690.38;10536302;28;20190;-73
2023/06/30 19:27:50;;;;;;;35.58;20.98;;;;;;;-145.68;100.00;72732.34;10536593;28;20198;-73
2023/06/30 19:32:51;;;;;;;33.42;21.05;;;;;;;-145.68;100.00;72722.34;10535675;28;20332;-73
2023/06/30 19:37:51;;;;;;;29.88;18.98;;;;;;;-145.68;100.00;72744.31;10536302;28;20307;-73
2023/06/30 19:42:51;;;;;;;27.70;18.55;;;;;;;-145.68;100.00;72738.31;10535520;28;20194;-73
2023/06/30 19:47:52;;;;;;;30.70;20.05;;;;;;;-145.68;100.00;72746.31;10536274;28;20229;-73
2023/06/30 19:52:52;;;;;;;31.67;20.23;;;;;;;-145.68;100.00;72742.31;10535238;28;20186;-73
2023/06/30 19:57:54;;;;;;;29.88;19.05;;;;;;;-145.68;100.00;72728.34;10536395;28;20543;-74
2023/06/30 20:02:54;;;;;;;26.05;17.88;;;;;;;-145.68;100.00;72740.31;10536431;28;20191;-73
2023/06/30 20:07:55;;;;;;;30.55;18.95;;;;;;;-145.68;100.00;72750.31;10535814;28;20260;-73
2023/06/30 20:12:55;;;;;;;28.13;17.25;;;;;;;-145.68;100.00;72752.31;10536027;28;20328;-73
2023/06/30 20:17:56;;;;;;;26.02;18.30;;;;;;;-145.68;100.00;72740.31;10535851;28;20327;-73
2023/06/30 20:22:56;;;;;;;26.98;17.85;;;;;;;-145.68;100.00;72734.31;10535838;28;20655;-73
2023/06/30 20:27:56;;;;;;;26.75;18.50;;;;;;;-145.68;100.00;72732.34;10535900;28;20776;-73
2023/06/30 20:32:57;;;;;;;27.83;17.75;;;;;;;-145.68;100.00;72724.34;10534496;28;20598;-73
2023/06/30 20:37:57;;;;;;;24.80;17.73;;;;;;;-145.68;100.00;72724.34;10535115;28;20620;-73
2023/06/30 20:42:58;;;;;;;25.45;17.33;;;;;;;-145.68;100.00;72722.34;10534611;28;20215;-73
2023/06/30 20:47:58;;;;;;;28.55;19.42;;;;;;;-145.68;100.00;72736.31;10535034;28;20190;-73
2023/06/30 20:52:58;;;;;;;29.08;18.42;;;;;;;-145.68;100.00;72730.34;10534464;28;20202;-73
2023/06/30 20:57:59;;;;;;;27.23;17.85;;;;;;;-145.68;100.00;72732.34;10534871;28;20239;-73
2023/06/30 21:02:59;;;;;;;20.88;15.98;;;;;;;-145.68;100.00;72746.31;10533065;28;20198;-73
2023/06/30 21:07:59;;;;;;;24.40;16.48;;;;;;;-145.68;100.00;72758.31;10534104;28;20186;-74
2023/06/30 21:13:00;;;;;;;22.35;15.52;;;;;;;-145.68;100.00;72768.31;10533819;28;20293;-74
2023/06/30 21:18:01;;;;;;;17.70;13.70;;;;;;;-145.68;100.00;72792.28;10533683;28;20191;-74
2023/06/30 21:23:01;;;;;;;23.13;15.32;;;;;;;-145.68;100.00;72800.28;10533287;28;20337;-73
2023/06/30 21:28:01;;;;;;;22.30;15.32;;;;;;;-145.68;100.00;72826.25;10533192;28;20179;-73
2023/06/30 21:33:02;;;;;;;21.75;14.68;;;;;;;-145.68;100.00;72836.25;10532788;28;20242;-73
2023/06/30 21:38:02;;;;;;;21.98;15.73;;;;;;;-145.68;100.00;72846.25;10532652;28;20202;-73
2023/06/30 21:43:02;;;;;;;22.73;14.77;;;;;;;-145.68;100.00;72842.25;10532732;28;20194;-73
2023/06/30 21:48:03;;;;;;;24.30;16.92;;;;;;;-145.68;100.00;72848.25;10532082;28;20795;-73
2023/06/30 21:53:03;;;;;;;27.88;17.00;;;;;;;-145.68;100.00;72848.25;10531959;28;20634;-73
2023/06/30 21:58:04;;;;;;;28.85;17.88;;;;;;;-145.68;100.00;72852.25;10532582;28;20210;-73
2023/06/30 22:03:05;;;;;;;26.33;17.42;;;;;;;-145.68;100.00;72852.25;10531531;28;20239;-74
2023/06/30 22:08:06;;;;;;;27.02;16.60;;;;;;;-145.68;100.00;72846.25;10532283;28;20540;-74
2023/06/30 22:13:06;;;;;;;24.23;16.25;;;;;;;-145.68;100.00;72856.22;10532346;28;20190;-74
2023/06/30 22:18:07;;;;;;;23.10;16.20;;;;;;;-145.68;100.00;72864.22;10531651;28;20198;-74
2023/06/30 22:23:07;;;;;;;24.83;15.77;;;;;;;-145.68;100.00;72852.25;10532450;28;20190;-76
2023/06/30 22:28:07;;;;;;;25.17;15.55;;;;;;;-145.68;100.00;72856.22;10533330;28;20560;-74
2023/06/30 22:33:08;;;;;;;23.40;15.10;;;;;;;-145.68;100.00;72836.25;10533618;28;20582;-74